Time;durP1;ratioP1;P1;durP2;ratioP2;P2;SDS_P1;SDS_P2;PMS_P1;PMS_P2;Temp;Humidity;BMP_temperature;BMP_pressure;BME280_temperature;BME280_humidity;BME280_pressure;Samples;Min_cycle;Max_cycle;Signal;HPM_P1;HPM_P2
2022/07/03 00:02:24;;;;;;;4.45;2.17;;;;;;;25.12;41.09;101284.03;4997498;28;20113;-45
2022/07/03 00:04:50;;;;;;;5.25;2.10;;;;;;;25.20;40.72;101282.56;4997667;28;20077;-46
2022/07/03 00:07:17;;;;;;;2.13;1.73;;;;;;;25.03;41.30;101272.88;4985285;28;20035;-50
2022/07/03 00:09:43;;;;;;;2.55;1.80;;;;;;;24.65;42.08;101279.34;4979878;28;20386;-47
2022/07/03 00:12:09;;;;;;;4.57;2.03;;;;;;;24.67;41.47;101268.94;4986917;28;20037;-46
2022/07/03 00:14:36;;;;;;;4.47;2.15;;;;;;;24.62;42.43;101267.06;4996983;28;20057;-50
2022/07/03 00:17:02;;;;;;;2.90;1.90;;;;;;;24.54;42.67;101270.44;4998503;28;20033;-48
2022/07/03 00:19:28;;;;;;;4.85;2.17;;;;;;;24.64;41.90;101259.34;4995547;28;20037;-49
2022/07/03 00:22:02;;;;;;;3.58;1.70;;;;;;;24.45;43.24;101267.50;4981416;28;20203;-46
2022/07/03 00:24:46;;;;;;;4.35;2.05;;;;;;;24.48;42.47;101264.16;4996386;28;20046;-47
2022/07/03 00:27:15;;;;;;;6.15;2.45;;;;;;;24.36;42.76;101263.75;4986857;28;20042;-48
2022/07/03 00:29:44;;;;;;;4.35;1.90;;;;;;;24.27;42.70;101264.66;4997566;28;20038;-50
2022/07/03 00:32:22;;;;;;;3.58;2.15;;;;;;;24.30;42.94;101250.38;4997257;28;20077;-48
2022/07/03 00:34:52;;;;;;;3.03;1.95;;;;;;;23.91;43.78;101246.59;4998948;28;20049;-50
2022/07/03 00:37:19;;;;;;;4.90;2.35;;;;;;;24.02;43.25;101247.34;4965426;28;20102;-50
2022/07/03 00:39:48;;;;;;;3.70;1.95;;;;;;;24.16;43.82;101245.59;4978746;28;20073;-47
2022/07/03 00:42:14;;;;;;;4.60;2.10;;;;;;;23.69;43.60;101236.09;4994867;28;20034;-57
2022/07/03 00:44:49;;;;;;;4.25;1.95;;;;;;;23.82;44.19;101247.50;4979929;28;20039;-52
2022/07/03 00:47:17;;;;;;;;;;;;;;;23.88;43.84;101241.72;4979118;28;20030;-50
2022/07/03 00:49:48;;;;;;;7.63;2.42;;;;;;;23.79;43.53;101248.06;4985808;28;19914;-53
2022/07/03 00:52:16;;;;;;;5.88;2.10;;;;;;;23.69;43.79;101240.75;4978199;28;20060;-50
2022/07/03 00:55:01;;;;;;;4.95;2.20;;;;;;;23.66;44.61;101238.63;4992325;28;20031;-55
2022/07/03 00:57:29;;;;;;;4.32;1.92;;;;;;;23.65;44.66;101239.69;4999901;28;20084;-55
2022/07/03 00:59:56;;;;;;;2.95;1.90;;;;;;;23.78;44.01;101246.44;4994717;28;20030;-55
2022/07/03 01:02:29;;;;;;;8.10;2.55;;;;;;;23.55;44.12;101239.75;4991743;28;20033;-55
2022/07/03 01:05:05;;;;;;;6.78;2.10;;;;;;;23.62;43.80;101237.50;4983091;28;20062;-55
2022/07/03 01:07:41;;;;;;;4.90;2.08;;;;;;;23.35;44.86;101243.41;4991851;28;20109;-55
2022/07/03 01:10:19;;;;;;;4.45;1.98;;;;;;;23.30;43.84;101238.78;4994189;28;20026;-56
2022/07/03 01:12:55;;;;;;;5.13;2.15;;;;;;;23.21;44.78;101232.28;4985240;28;20577;-56
2022/07/03 01:15:51;;;;;;;5.13;2.47;;;;;;;22.60;45.72;101236.03;4995939;28;20026;-55
2022/07/03 01:18:36;;;;;;;5.07;2.22;;;;;;;22.54;45.62;101239.03;4986151;28;20393;-56
2022/07/03 01:21:28;;;;;;;4.20;1.88;;;;;;;22.41;46.44;101234.97;5001498;28;20493;-56
2022/07/03 01:24:12;;;;;;;5.72;2.55;;;;;;;;;;5014701;28;20034;-56
2022/07/03 01:26:41;;;;;;;4.05;2.08;;;;;;;21.49;48.49;101234.13;4992640;28;20516;-56
2022/07/03 01:29:12;;;;;;;5.10;2.63;;;;;;;21.32;49.11;101254.25;4998886;28;20030;-55
2022/07/03 01:31:41;;;;;;;3.47;2.08;;;;;;;21.48;48.87;101249.63;4982540;28;20035;-55
2022/07/03 01:34:16;;;;;;;3.25;2.17;;;;;;;21.69;48.53;101255.94;5005981;28;20088;-55
2022/07/03 01:36:43;;;;;;;3.85;1.70;;;;;;;21.64;48.54;101242.31;5010656;28;20105;-55
2022/07/03 01:39:17;;;;;;;4.90;2.35;;;;;;;21.94;47.75;101254.34;4998495;28;20030;-55
2022/07/03 01:41:50;;;;;;;2.65;1.88;;;;;;;21.67;48.33;101254.59;4994530;28;20056;-55
2022/07/03 01:44:18;;;;;;;3.15;2.10;;;;;;;21.67;47.44;101258.13;4992972;28;20030;-55
2022/07/03 01:46:45;;;;;;;3.78;2.00;;;;;;;21.81;46.99;101263.84;4994822;28;20045;-55
2022/07/03 01:49:14;;;;;;;2.50;1.70;;;;;;;22.00;45.89;101261.44;4993873;28;20014;-54
2022/07/03 01:51:42;;;;;;;3.00;1.83;;;;;;;21.88;46.75;101261.69;4994684;28;20117;-55
2022/07/03 01:54:11;;;;;;;3.60;1.95;;;;;;;21.97;46.36;101261.97;4994212;28;20497;-55
2022/07/03 01:56:37;;;;;;;2.67;1.60;;;;;;;22.20;45.96;101253.25;4994341;28;20517;-55
2022/07/03 01:59:04;;;;;;;2.20;1.88;;;;;;;21.99;45.57;101255.16;4993942;28;20028;-55
2022/07/03 02:01:51;;;;;;;3.35;2.25;;;;;;;21.93;46.74;101252.69;4994073;28;20026;-55
2022/07/03 02:04:33;;;;;;;3.38;2.03;;;;;;;22.16;46.04;101254.09;4991104;28;20081;-56
2022/07/03 02:07:28;;;;;;;2.78;1.90;;;;;;;22.46;45.43;101256.78;4973763;28;20025;-55
2022/07/03 02:10:09;;;;;;;2.95;1.95;;;;;;;22.68;44.46;101259.19;4976621;28;20018;-55
2022/07/03 02:13:02;;;;;;;3.65;2.10;;;;;;;22.01;45.14;101261.16;4974345;28;20563;-55
2022/07/03 02:15:33;;;;;;;2.47;1.77;;;;;;;22.12;46.11;101265.53;4987107;28;20549;-55
2022/07/03 02:18:22;;;;;;;6.60;2.03;;;;;;;21.98;45.88;101269.03;5009683;28;20042;-55
2022/07/03 02:21:02;;;;;;;5.28;2.03;;;;;;;21.92;45.49;101256.50;4988021;28;20553;-55
2022/07/03 02:23:32;;;;;;;3.95;2.35;;;;;;;22.11;45.20;101266.66;4983395;28;20423;-55
2022/07/03 02:26:03;;;;;;;3.33;2.22;;;;;;;22.57;44.60;101261.13;4989169;28;20034;-55
2022/07/03 02:28:45;;;;;;;3.97;2.05;;;;;;;22.73;44.21;101261.91;4993242;28;20033;-55
2022/07/03 02:31:15;;;;;;;2.65;2.08;;;;;;;22.19;44.86;101254.38;4993196;28;20030;-55
2022/07/03 02:33:43;;;;;;;2.50;1.65;;;;;;;21.98;45.43;101266.31;5010680;28;20057;-55
2022/07/03 02:36:11;;;;;;;4.38;2.42;;;;;;;22.42;44.47;101269.34;5000327;28;20414;-55
2022/07/03 02:38:40;;;;;;;3.05;1.77;;;;;;;22.19;44.87;101270.72;5001383;28;20065;-55
2022/07/03 02:41:20;;;;;;;2.78;1.52;;;;;;;22.16;45.72;101268.56;4992463;28;20034;-55
2022/07/03 02:43:59;;;;;;;2.30;1.60;;;;;;;22.17;45.23;101267.47;4992994;28;20474;-55
2022/07/03 02:46:49;;;;;;;4.03;1.65;;;;;;;22.31;44.51;101263.06;4992856;28;20073;-55
2022/07/03 02:49:36;;;;;;;2.95;2.20;;;;;;;22.50;44.51;101266.06;4992938;28;20126;-55
2022/07/03 02:52:21;;;;;;;3.20;1.70;;;;;;;22.24;44.24;101270.72;4993036;28;20165;-55
2022/07/03 02:54:51;;;;;;;2.50;1.67;;;;;;;22.57;44.31;101268.50;4992650;28;20036;-55
2022/07/03 02:57:22;;;;;;;3.88;2.22;;;;;;;22.32;43.95;101261.16;4993065;28;20030;-54
2022/07/03 03:00:01;;;;;;;3.63;1.83;;;;;;;22.12;44.67;101260.09;4983566;28;20101;-55
2022/07/03 03:02:53;;;;;;;3.53;2.50;;;;;;;22.21;44.34;101259.53;4973599;28;20083;-55
2022/07/03 03:05:31;;;;;;;3.53;2.20;;;;;;;22.05;44.86;101264.97;4973217;28;20030;-55
2022/07/03 03:08:23;;;;;;;3.50;1.98;;;;;;;21.59;45.73;101264.09;4973238;28;20034;-56
2022/07/03 03:10:50;;;;;;;2.90;1.85;;;;;;;20.36;48.49;101267.25;4990742;28;20497;-55
2022/07/03 03:13:21;;;;;;;3.17;1.75;;;;;;;20.72;47.99;101257.47;4992819;28;20032;-55
2022/07/03 03:16:07;;;;;;;4.38;1.88;;;;;;;20.60;48.62;101262.28;4992582;28;20045;-55
2022/07/03 03:18:41;;;;;;;4.30;1.90;;;;;;;20.50;48.64;101258.44;4992520;28;20033;-55
2022/07/03 03:21:15;;;;;;;3.90;2.00;;;;;;;19.43;51.55;101253.88;4992188;28;20030;-55
2022/07/03 03:24:01;;;;;;;3.10;1.90;;;;;;;19.74;50.75;101255.88;4991982;28;20041;-55
2022/07/03 03:26:31;;;;;;;1.70;1.40;;;;;;;19.64;51.03;101258.47;5017526;22;20058;-55
2022/07/03 03:29:00;;;;;;;4.18;3.13;;;;;;;19.56;51.29;101261.63;5011958;28;20498;-55
2022/07/03 03:31:27;;;;;;;6.07;3.33;;;;;;;19.62;51.71;101268.78;5011709;28;20104;-55
2022/07/03 03:33:55;;;;;;;5.97;2.60;;;;;;;19.46;52.71;101266.94;5011920;28;20033;-55
2022/07/03 03:36:21;;;;;;;3.83;2.50;;;;;;;19.47;53.25;101271.31;5011851;28;20481;-55
2022/07/03 03:38:49;;;;;;;7.35;2.45;;;;;;;18.88;55.01;101265.72;5011638;28;20022;-54
2022/07/03 03:41:16;;;;;;;4.05;2.40;;;;;;;19.03;54.70;101274.03;5011804;28;20164;-53
2022/07/03 03:43:43;;;;;;;3.70;2.33;;;;;;;18.98;54.68;101274.78;5011384;28;20018;-54
2022/07/03 03:46:09;;;;;;;5.03;2.33;;;;;;;18.75;55.01;101279.63;5011481;28;20057;-55
2022/07/03 03:48:35;;;;;;;4.55;2.28;;;;;;;19.00;55.00;101285.41;5011856;28;20443;-55
2022/07/03 03:51:02;;;;;;;4.25;2.47;;;;;;;18.93;54.71;101279.31;5011724;28;20018;-54
2022/07/03 03:53:29;;;;;;;4.05;2.80;;;;;;;18.72;55.07;101287.19;5011787;28;20037;-54
2022/07/03 03:56:03;;;;;;;3.60;2.20;;;;;;;18.63;54.11;101279.69;5011535;28;20076;-54
2022/07/03 03:58:31;;;;;;;3.15;2.22;;;;;;;18.31;54.94;101287.59;5011615;28;20026;-55
2022/07/03 04:00:59;;;;;;;3.40;1.77;;;;;;;18.11;55.47;101282.66;4993772;28;20097;-54
2022/07/03 04:03:28;;;;;;;2.38;2.00;;;;;;;18.04;55.70;101282.81;5012174;28;20038;-55
2022/07/03 04:05:54;;;;;;;3.53;2.38;;;;;;;17.99;56.20;101292.72;5011558;28;20033;-55
2022/07/03 04:08:22;;;;;;;1.73;1.55;;;;;;;18.08;55.79;101288.56;5011498;28;20386;-55
2022/07/03 04:10:49;;;;;;;4.97;2.35;;;;;;;18.09;56.94;101288.31;5011547;28;20034;-53
2022/07/03 04:13:16;;;;;;;5.22;2.50;;;;;;;17.87;58.00;101299.03;5010804;28;20498;-55
2022/07/03 04:15:42;;;;;;;7.60;3.28;;;;;;;17.97;57.29;101305.69;4989767;28;20034;-54
2022/07/03 04:18:09;;;;;;;7.97;2.95;;;;;;;17.88;57.91;101314.25;4991532;28;20401;-55
2022/07/03 04:20:35;;;;;;;5.45;2.95;;;;;;;17.51;58.73;101324.59;4989347;28;20505;-53
2022/07/03 04:23:01;;;;;;;5.32;3.00;;;;;;;17.66;58.64;101326.78;4991858;28;20030;-54
2022/07/03 04:25:28;;;;;;;6.13;3.33;;;;;;;17.55;58.86;101319.53;5003475;28;20038;-54
2022/07/03 04:27:54;;;;;;;6.25;3.05;;;;;;;17.39;58.92;101324.63;5003225;28;20112;-54
2022/07/03 04:30:20;;;;;;;4.30;3.10;;;;;;;17.41;59.13;101327.09;5011154;28;20052;-54
2022/07/03 04:32:47;;;;;;;5.13;2.90;;;;;;;17.22;59.85;101321.03;5011305;28;20314;-55
2022/07/03 04:35:14;;;;;;;5.38;3.10;;;;;;;17.13;60.11;101317.03;5015411;28;20414;-54
2022/07/03 04:37:42;;;;;;;5.45;3.10;;;;;;;17.23;59.49;101329.94;5008738;28;20054;-54
2022/07/03 04:40:09;;;;;;;7.22;2.70;;;;;;;17.23;59.81;101336.19;5007223;28;20444;-55
2022/07/03 04:42:35;;;;;;;2.78;2.10;;;;;;;17.30;58.84;101336.88;4996399;28;20054;-55
2022/07/03 04:45:02;;;;;;;4.10;1.95;;;;;;;17.11;59.10;101328.09;5004896;28;20489;-54
2022/07/03 04:47:29;;;;;;;2.97;1.67;;;;;;;17.08;59.37;101327.72;4995671;28;20027;-55
2022/07/03 04:49:55;;;;;;;4.43;1.95;;;;;;;17.14;58.90;101326.78;4995381;28;20390;-54
2022/07/03 04:52:21;;;;;;;2.63;1.80;;;;;;;17.07;59.22;101326.91;5008735;28;20071;-53
2022/07/03 04:54:47;;;;;;;3.38;2.13;;;;;;;17.13;59.11;101317.03;5013197;28;20037;-54
2022/07/03 04:57:14;;;;;;;4.05;1.92;;;;;;;17.00;59.48;101328.09;5011682;28;20470;-55
2022/07/03 04:59:40;;;;;;;4.63;2.20;;;;;;;16.95;59.60;101334.22;5014184;28;20500;-53
2022/07/03 05:02:07;;;;;;;4.68;2.72;;;;;;;16.64;61.03;101330.75;5014489;28;20497;-54
2022/07/03 05:04:33;;;;;;;6.10;2.55;;;;;;;17.06;59.96;101336.09;4994831;28;20027;-54
2022/07/03 05:07:00;;;;;;;5.32;2.85;;;;;;;16.89;60.19;101332.47;5007147;28;20037;-53
2022/07/03 05:09:26;;;;;;;7.38;2.95;;;;;;;17.15;59.26;101344.66;5014074;28;20118;-54
2022/07/03 05:11:52;;;;;;;5.93;2.75;;;;;;;16.91;60.17;101341.16;5014198;28;20040;-53
2022/07/03 05:14:18;;;;;;;8.43;3.08;;;;;;;16.79;60.77;101335.75;5014492;28;20034;-53
2022/07/03 05:16:44;;;;;;;6.72;2.80;;;;;;;16.65;61.04;101339.69;5014205;28;20401;-52
2022/07/03 05:19:11;;;;;;;4.28;2.70;;;;;;;16.57;61.46;101348.16;5014345;28;20191;-53
2022/07/03 05:21:37;;;;;;;7.32;3.28;;;;;;;16.56;61.69;101347.34;5014634;28;20022;-54
2022/07/03 05:24:03;;;;;;;5.60;3.03;;;;;;;16.33;62.13;101350.00;5014144;28;20489;-54
2022/07/03 05:26:29;;;;;;;6.88;2.90;;;;;;;16.27;62.81;101340.97;5013103;28;20041;-54
2022/07/03 05:28:56;;;;;;;6.32;3.03;;;;;;;16.10;63.64;101348.91;5013915;28;20111;-53
2022/07/03 05:31:22;;;;;;;6.03;3.65;;;;;;;16.21;63.43;101344.59;5014260;28;20025;-54
2022/07/03 05:33:48;;;;;;;3.40;2.25;;;;;;;16.40;62.37;101347.19;5007586;28;20038;-53
2022/07/03 05:36:14;;;;;;;8.50;2.92;;;;;;;16.50;61.92;101348.28;4994492;28;20095;-53
2022/07/03 05:41:25;;;;;;;3.95;1.70;;;;;;;16.46;61.52;101351.66;4992193;28;20097;-53
2022/07/03 05:43:51;;;;;;;3.20;1.60;;;;;;;16.45;61.61;101353.56;5003921;28;20027;-53
2022/07/03 05:46:17;;;;;;;2.92;1.40;;;;;;;16.38;61.81;101344.75;4992577;28;20034;-54
2022/07/03 05:48:43;;;;;;;2.10;1.67;;;;;;;16.47;61.31;101345.19;4993596;28;20470;-52
2022/07/03 05:51:09;;;;;;;2.05;1.50;;;;;;;16.52;61.22;101348.84;4993191;28;20034;-53
2022/07/03 05:53:36;;;;;;;2.25;1.30;;;;;;;16.52;61.24;101353.44;4993899;28;20031;-54
2022/07/03 05:56:02;;;;;;;2.63;1.55;;;;;;;16.69;60.56;101351.69;4992555;28;20105;-54
2022/07/03 05:58:28;;;;;;;2.47;1.45;;;;;;;16.67;60.58;101351.13;4995487;28;20089;-53
2022/07/03 06:00:54;;;;;;;3.97;1.30;;;;;;;16.58;60.40;101360.63;4993400;28;20434;-53
2022/07/03 06:03:20;;;;;;;1.88;1.20;;;;;;;16.52;60.67;101348.84;4993277;28;20030;-54
2022/07/03 06:05:47;;;;;;;1.52;1.30;;;;;;;16.44;60.47;101348.38;4993317;28;20022;-52
2022/07/03 06:08:13;;;;;;;2.53;1.65;;;;;;;16.42;60.49;101350.47;4991992;28;20034;-53
2022/07/03 06:10:39;;;;;;;3.20;1.70;;;;;;;16.37;60.84;101353.88;4993181;28;20036;-52
2022/07/03 06:13:06;;;;;;;2.58;2.17;;;;;;;16.27;61.19;101359.03;4992319;28;20026;-52
2022/07/03 06:15:33;;;;;;;1.75;1.40;;;;;;;16.21;61.49;101359.94;4993659;28;20046;-55
2022/07/03 06:17:59;;;;;;;1.60;1.27;;;;;;;16.21;61.44;101351.84;4992512;28;20027;-52
2022/07/03 06:20:25;;;;;;;3.33;1.60;;;;;;;16.08;62.10;101358.25;4993219;28;20149;-52
2022/07/03 06:22:51;;;;;;;7.60;1.70;;;;;;;16.04;62.14;101348.97;4992084;28;20085;-53
2022/07/03 06:25:18;;;;;;;2.25;1.45;;;;;;;15.94;62.20;101348.72;4992888;28;20066;-53
2022/07/03 06:27:44;;;;;;;4.68;1.90;;;;;;;15.91;62.48;101349.97;4991108;28;20034;-53
2022/07/03 06:30:10;;;;;;;1.63;1.40;;;;;;;15.92;62.33;101351.63;4993446;28;20113;-52
2022/07/03 06:32:37;;;;;;;2.45;1.42;;;;;;;15.98;62.19;101349.88;4991888;28;20038;-52
2022/07/03 06:35:03;;;;;;;2.20;1.48;;;;;;;15.80;62.89;101353.47;4992881;28;20026;-52
2022/07/03 06:37:30;;;;;;;1.92;1.55;;;;;;;15.69;63.11;101356.94;4992241;28;20044;-53
2022/07/03 06:39:56;;;;;;;2.45;1.40;;;;;;;15.70;63.18;101350.47;4992283;28;20042;-53
2022/07/03 06:42:23;;;;;;;3.47;1.35;;;;;;;15.76;63.02;101352.25;4991723;28;20033;-53
2022/07/03 06:44:49;;;;;;;1.80;1.00;;;;;;;15.74;63.27;101346.28;4992510;28;20125;-53
2022/07/03 06:47:15;;;;;;;2.15;1.05;;;;;;;15.87;62.50;101346.09;4992697;28;20027;-52
2022/07/03 06:49:43;;;;;;;3.30;1.55;;;;;;;15.81;62.76;101350.53;5003157;28;20053;-52
2022/07/03 06:52:10;;;;;;;4.95;1.52;;;;;;;15.83;62.63;101358.41;4992312;28;20127;-52
2022/07/03 06:54:39;;;;;;;2.00;1.17;;;;;;;15.79;63.01;101349.94;4991288;28;20463;-53
2022/07/03 06:57:06;;;;;;;1.58;0.80;;;;;;;15.84;62.90;101357.34;4992329;28;20093;-52
2022/07/03 06:59:32;;;;;;;1.85;1.10;;;;;;;15.87;62.85;101364.97;4992228;28;20030;-53
2022/07/03 07:01:58;;;;;;;1.52;1.00;;;;;;;15.86;62.57;101359.81;4991301;28;20057;-52
2022/07/03 07:04:24;;;;;;;2.85;0.98;;;;;;;15.80;62.56;101359.69;4991138;28;20385;-53
2022/07/03 07:06:50;;;;;;;1.75;0.77;;;;;;;15.82;62.50;101357.59;4991278;28;20030;-50
2022/07/03 07:09:17;;;;;;;2.15;1.05;;;;;;;15.91;62.21;101359.97;4992234;28;20072;-53
2022/07/03 07:11:43;;;;;;;0.95;0.90;;;;;;;15.84;62.07;101371.69;4992313;28;20034;-52
2022/07/03 07:14:09;;;;;;;1.02;0.90;;;;;;;15.91;61.77;101373.47;5008066;28;20032;-53
2022/07/03 07:16:35;;;;;;;1.65;0.63;;;;;;;15.72;62.21;101367.28;5005742;28;20415;-53
2022/07/03 07:19:01;;;;;;;1.30;0.80;;;;;;;15.83;62.07;101361.94;4991553;28;20030;-52
2022/07/03 07:21:28;;;;;;;1.15;0.80;;;;;;;15.80;62.20;101362.38;4992907;28;20026;-52
2022/07/03 07:23:54;;;;;;;1.00;0.60;;;;;;;15.80;62.00;101354.28;4991273;28;20081;-52
2022/07/03 07:26:20;;;;;;;3.05;1.00;;;;;;;15.80;61.95;101351.59;4994036;28;20042;-52
2022/07/03 07:28:47;;;;;;;2.95;0.98;;;;;;;15.72;62.40;101360.00;4991503;28;20101;-54
2022/07/03 07:31:13;;;;;;;1.45;0.90;;;;;;;15.64;62.50;101351.38;4991645;28;20026;-52
2022/07/03 07:33:39;;;;;;;1.08;0.82;;;;;;;15.75;62.22;101345.22;4991923;28;20026;-52
2022/07/03 07:36:05;;;;;;;1.77;0.90;;;;;;;15.68;62.72;101350.72;4996248;28;20049;-53
2022/07/03 07:38:33;;;;;;;2.03;1.30;;;;;;;15.72;63.16;101356.50;5000900;28;20608;-52
2022/07/03 07:40:59;;;;;;;2.38;1.50;;;;;;;15.63;64.26;101350.56;4994443;28;20594;-54
2022/07/03 07:43:25;;;;;;;2.38;1.13;;;;;;;15.72;62.85;101351.91;5011820;28;20026;-54
2022/07/03 07:45:52;;;;;;;1.20;0.80;;;;;;;15.53;62.82;101340.25;5010592;28;20153;-52
2022/07/03 07:48:19;;;;;;;1.35;0.70;;;;;;;15.57;62.39;101338.78;5011759;28;20543;-53
2022/07/03 07:50:45;;;;;;;1.85;0.98;;;;;;;15.53;62.58;101337.56;5000593;28;20390;-54
2022/07/03 07:53:11;;;;;;;2.53;1.15;;;;;;;15.41;63.10;101336.69;4999147;28;20018;-52
2022/07/03 07:55:37;;;;;;;2.30;1.10;;;;;;;15.48;62.33;101340.13;4993613;28;20372;-54
2022/07/03 07:58:04;;;;;;;1.42;0.90;;;;;;;15.30;62.54;101326.66;4991991;28;20033;-52
2022/07/03 08:00:30;;;;;;;2.13;1.10;;;;;;;15.23;63.42;101342.09;4990754;28;20026;-50
2022/07/03 08:05:41;;;;;;;3.05;1.30;;;;;;;15.20;64.37;101329.88;4991031;28;20109;-53
2022/07/03 08:08:10;;;;;;;2.40;1.20;;;;;;;15.29;64.23;101338.50;4994482;28;20101;-52
2022/07/03 08:10:43;;;;;;;7.85;1.85;;;;;;;15.22;64.83;101335.06;4995824;28;20052;-52
2022/07/03 08:13:11;;;;;;;1.08;0.90;;;;;;;15.34;64.32;101345.91;4995596;28;20029;-51
2022/07/03 08:15:38;;;;;;;1.67;1.13;;;;;;;15.32;65.10;101348.81;4995172;28;20482;-53
2022/07/03 08:18:05;;;;;;;2.10;1.30;;;;;;;15.30;65.46;101345.53;4994836;28;20023;-52
2022/07/03 08:20:32;;;;;;;2.08;0.88;;;;;;;15.32;64.55;101352.38;4999445;28;20482;-52
2022/07/03 08:22:58;;;;;;;1.95;0.75;;;;;;;15.36;63.36;101360.81;4995540;28;20077;-52
2022/07/03 08:25:25;;;;;;;2.08;0.77;;;;;;;15.29;63.87;101355.50;4995397;28;20105;-53
2022/07/03 08:27:52;;;;;;;1.75;0.90;;;;;;;15.35;63.54;101356.47;4999170;28;20080;-51
2022/07/03 08:30:18;;;;;;;1.27;0.75;;;;;;;15.38;63.83;101353.34;5013490;28;20067;-52
2022/07/03 08:32:45;;;;;;;1.30;0.77;;;;;;;15.44;62.88;101351.63;5004269;28;20049;-52
2022/07/03 08:35:13;;;;;;;1.95;0.65;;;;;;;15.37;63.55;101351.66;5014594;28;20097;-51
2022/07/03 08:37:43;;;;;;;1.00;0.80;;;;;;;15.28;63.77;101345.75;5002769;28;20474;-52
2022/07/03 08:40:14;;;;;;;2.67;0.98;;;;;;;15.29;63.63;101343.88;4998964;28;20076;-50
2022/07/03 08:42:52;;;;;;;3.17;1.00;;;;;;;15.03;64.56;101345.81;5004630;28;20030;-52
2022/07/03 08:45:20;;;;;;;2.40;0.80;;;;;;;14.94;65.37;101352.56;4995547;28;20429;-52
2022/07/03 08:47:47;;;;;;;1.63;0.82;;;;;;;15.05;64.46;101342.91;4995330;28;20084;-52
2022/07/03 08:50:17;;;;;;;1.85;0.90;;;;;;;15.02;65.01;101346.03;5007635;28;20031;-51
2022/07/03 08:52:44;;;;;;;1.23;1.00;;;;;;;15.11;64.21;101341.19;5015002;28;20080;-50
2022/07/03 08:55:13;;;;;;;2.17;1.15;;;;;;;14.90;64.94;101337.06;5010146;28;20049;-53
2022/07/03 08:57:41;;;;;;;2.20;1.10;;;;;;;15.11;64.32;101342.03;4994978;28;20045;-53
2022/07/03 09:00:11;;;;;;;2.55;0.98;;;;;;;15.15;64.10;101334.28;4994979;28;20031;-50
2022/07/03 09:02:43;;;;;;;2.58;1.00;;;;;;;15.24;63.41;101332.94;4995259;28;20045;-52
2022/07/03 09:05:11;;;;;;;2.28;0.82;;;;;;;15.18;63.92;101337.38;4999384;28;20068;-50
2022/07/03 09:07:41;;;;;;;2.50;1.00;;;;;;;15.24;63.71;101344.56;4994813;28;20026;-51
2022/07/03 09:10:10;;;;;;;1.65;1.02;;;;;;;15.25;63.63;101342.69;5009364;28;20033;-51
2022/07/03 09:12:37;;;;;;;2.80;1.20;;;;;;;15.16;64.00;101346.75;5012804;28;20382;-53
2022/07/03 09:15:05;;;;;;;1.98;1.15;;;;;;;15.08;64.31;101347.03;5014303;28;20033;-52
2022/07/03 09:17:32;;;;;;;2.00;1.10;;;;;;;15.02;64.33;101354.94;5013265;28;20084;-53
2022/07/03 09:20:03;;;;;;;2.15;1.00;;;;;;;14.95;64.67;101367.69;5011470;28;20091;-51
2022/07/03 09:22:36;;;;;;;1.83;1.02;;;;;;;15.06;64.52;101368.81;5014412;28;20034;-53
2022/07/03 09:25:13;;;;;;;3.08;1.48;;;;;;;14.96;64.92;101368.50;5013666;28;20050;-50
2022/07/03 09:27:50;;;;;;;1.85;1.00;;;;;;;14.91;65.38;101376.44;5013739;28;20026;-52
2022/07/03 09:30:17;;;;;;;3.00;1.15;;;;;;;14.91;65.38;101369.16;5012796;28;20022;-54
2022/07/03 09:32:45;;;;;;;3.95;1.42;;;;;;;14.82;65.67;101357.00;5013236;28;20402;-52
2022/07/03 09:35:20;;;;;;;3.65;1.50;;;;;;;14.86;65.51;101354.69;5013467;28;20026;-53
2022/07/03 09:37:49;;;;;;;;;;;;;;;14.71;66.50;101346.94;5014099;28;20140;-53
2022/07/03 09:40:16;;;;;;;2.38;1.30;;;;;;;14.70;65.99;101345.31;5013415;28;19959;-50
2022/07/03 09:43:03;;;;;;;3.38;1.30;;;;;;;14.75;66.03;101348.97;5013005;28;20049;-52
2022/07/03 09:46:01;;;;;;;1.63;1.00;;;;;;;14.75;66.13;101350.84;5012673;28;20040;-49
2022/07/03 09:48:37;;;;;;;1.60;1.10;;;;;;;14.74;66.14;101349.22;5013527;28;20030;-52
2022/07/03 09:51:25;;;;;;;1.95;1.30;;;;;;;14.80;66.00;101351.03;5012080;28;20425;-52
2022/07/03 09:54:01;;;;;;;2.67;1.45;;;;;;;14.80;66.10;101351.03;5013677;28;20072;-53
2022/07/03 09:56:35;;;;;;;1.27;1.00;;;;;;;14.78;66.09;101350.44;5011295;28;20042;-52
2022/07/03 09:59:09;;;;;;;2.13;1.20;;;;;;;14.84;66.52;101348.72;5010849;28;20026;-53
2022/07/03 10:01:37;;;;;;;0.85;0.85;;;;;;;14.78;66.75;101342.34;5004149;28;20171;-53
2022/07/03 10:04:13;;;;;;;3.22;1.38;;;;;;;14.79;66.60;101331.34;4993080;28;20030;-52
2022/07/03 10:06:49;;;;;;;2.35;1.00;;;;;;;14.94;65.73;101339.09;4992653;28;20176;-52
2022/07/03 10:09:16;;;;;;;1.35;0.80;;;;;;;14.91;66.09;101333.31;4993374;28;20029;-50
2022/07/03 10:11:44;;;;;;;3.58;1.45;;;;;;;14.91;66.58;101336.81;4992473;28;20034;-53
2022/07/03 10:14:15;;;;;;;2.53;1.30;;;;;;;14.75;67.10;101326.59;4993468;28;20062;-51
2022/07/03 10:16:42;;;;;;;2.78;1.10;;;;;;;14.86;66.94;101325.88;4992522;28;20027;-52
2022/07/03 10:19:14;;;;;;;4.57;1.10;;;;;;;14.92;66.62;101318.78;4993552;28;20037;-51
2022/07/03 10:21:42;;;;;;;2.33;1.13;;;;;;;14.92;66.85;101321.47;4992271;28;20023;-52
2022/07/03 10:24:10;;;;;;;1.92;1.00;;;;;;;15.12;65.81;101319.41;4993167;28;20090;-50
2022/07/03 10:26:37;;;;;;;3.33;1.25;;;;;;;15.08;65.57;101314.66;5005289;28;20050;-53
2022/07/03 10:29:04;;;;;;;2.47;0.95;;;;;;;15.10;65.64;101326.03;4993402;28;20426;-52
2022/07/03 10:31:32;;;;;;;2.10;1.10;;;;;;;15.16;65.44;101325.16;5009872;28;20029;-52
2022/07/03 10:34:00;;;;;;;3.00;0.93;;;;;;;14.96;66.18;101315.41;5012804;28;20092;-52
2022/07/03 10:36:28;;;;;;;1.83;0.90;;;;;;;15.14;65.71;101322.69;5010922;28;20026;-51
2022/07/03 10:38:57;;;;;;;1.33;0.88;;;;;;;15.24;65.63;101314.91;5004835;28;20031;-52
2022/07/03 10:47:04;;;;;;;0.80;0.80;;;;;;;15.25;65.46;101319.22;4993419;28;20037;-52
2022/07/03 10:49:31;;;;;;;0.95;0.80;;;;;;;15.22;65.48;101318.88;4992938;28;20035;-52
2022/07/03 10:52:00;;;;;;;2.13;0.80;;;;;;;15.23;65.74;101320.53;5011822;28;20029;-52
2022/07/03 10:54:33;;;;;;;3.15;1.08;;;;;;;15.24;65.42;101311.38;5012661;28;20026;-53
2022/07/03 10:57:00;;;;;;;2.30;0.80;;;;;;;15.39;65.01;101317.22;5012621;28;20123;-52
2022/07/03 10:59:32;;;;;;;1.52;0.77;;;;;;;15.51;64.75;101315.41;5012534;28;20088;-49
2022/07/03 11:02:32;;;;;;;1.85;0.90;;;;;;;15.54;64.52;101312.22;5010545;28;20037;-52
2022/07/03 11:05:01;;;;;;;2.25;0.82;;;;;;;15.41;65.13;101312.41;5010745;28;20120;-51
2022/07/03 11:07:31;;;;;;;1.55;1.00;;;;;;;15.56;64.51;101306.63;5011079;28;20375;-52
2022/07/03 11:10:13;;;;;;;1.20;0.73;;;;;;;15.49;64.82;101313.97;5011111;28;20049;-49
2022/07/03 11:12:58;;;;;;;2.30;0.95;;;;;;;15.65;63.96;101305.28;5012325;28;20540;-53
2022/07/03 11:15:30;;;;;;;2.33;1.02;;;;;;;15.41;65.58;101307.00;5009786;28;20405;-51
2022/07/03 11:18:06;;;;;;;2.17;1.00;;;;;;;15.45;65.24;101310.91;5012132;28;20030;-51
2022/07/03 11:20:36;;;;;;;;;;;;;;;15.45;65.18;101312.78;5011458;28;20371;-52
2022/07/03 11:24:00;;;;;;;2.33;0.98;;;;;;;15.36;65.64;101314.13;5012267;28;20003;-52
2022/07/03 11:26:26;;;;;;;1.80;0.90;;;;;;;15.19;66.04;101319.31;4931112;29;20044;-52
2022/07/03 11:28:54;;;;;;;1.52;1.02;;;;;;;15.26;65.66;101314.66;5006030;28;20041;-52
2022/07/03 11:31:23;;;;;;;1.27;0.88;;;;;;;15.14;66.47;101319.16;5012188;28;20076;-49
2022/07/03 11:33:52;;;;;;;2.78;1.02;;;;;;;15.15;66.36;101313.53;5009773;28;20493;-50
2022/07/03 11:36:20;;;;;;;1.80;0.90;;;;;;;15.09;66.84;101316.31;5011611;28;20065;-50
2022/07/03 11:39:08;;;;;;;2.83;1.00;;;;;;;15.11;66.82;101317.75;5011727;28;20026;-53
2022/07/03 11:41:34;;;;;;;1.90;1.00;;;;;;;15.04;67.08;101315.09;5011613;28;20108;-52
2022/07/03 11:44:07;;;;;;;2.60;1.15;;;;;;;15.20;66.52;101316.38;5011225;28;20041;-51
2022/07/03 11:46:38;;;;;;;5.28;2.55;;;;;;;15.17;66.44;101306.06;5012008;28;20029;-50
2022/07/03 11:49:10;;;;;;;4.18;1.20;;;;;;;15.25;66.38;101308.44;5011582;28;20037;-52
2022/07/03 11:51:38;;;;;;;2.33;0.98;;;;;;;15.17;66.79;101306.06;5011744;28;20036;-52
2022/07/03 11:54:05;;;;;;;2.30;1.00;;;;;;;15.26;66.38;101307.38;5009926;28;20033;-51